Söndag 2022-07-03 02:14:20 vecka 26, namnsdag Aurora, imorgon Ulrika, Ulla  [Huvudmeny]   minomax.se   minomax.se/synop   minomax.se/flyg   wwwinfo.se   medd.nu  -  meddelanden   kakor SYNOP-data Visa SYNOP-temperaturer och data
Land: skriv landsbeteckning, 2 bokstäver, tex. se för Sverige. Sök land Sökord: skriv sökord, eller lämna tomt så visas alla Visar SYNOP för SE- Sverige Land/ IATA Id Mätplats Temp Tid Datum region ICAO SYNOP... WMO-nr ----- ------------------------- ----- ----- ---------- ------ --- ---- -----------------... 02013 Ritsem|Akkastugan 16,6 (00:00 2022-07-01) SE-BD AAXX 30221 02013 27/84 /0902 10166 20130 39567 40195 50005 70086 333 60005 90710 91104= 02019 Katterjakk|Lapplandia/Air 16,9 01:00 2022-07-03 SE-BD AAXX 02231 02019 27/82 /3402 10169 20134 39479 40070 57017 700// 333 60005 90710 91104= 02022 Abisko/Automated 20,9 20:00 2022-07-02 SE-BD AAXX 02181 02022 25770 72202 10209 20128 39639 40087 56005 333 10277 20172 60005 86/56 87/59 90710 91103= 02024 Stora Sjoefallet|Vietas 20,4 01:00 2022-07-03 SE-BD AAXX 02231 02024 47/80 /0906 10204 20158 72382 333 90710 91109= 02029 Tarfala 13,8 01:00 2022-07-03 SE-BD AAXX 02231 02029 46/// /1605 10138 20135 38815 57017 333 90710 91111=
02031 Rensjoen|Rautas 18,3 01:00 2022-07-03 SE-BD AAXX 02231 02031 27/67 /0103 10183 20168 70082 333 60005 90710 91106= 02036 Nikkaluokta/Automated 20,2 01:00 2022-07-03 SE-BD AAXX 02231 02036 27781 61703 10202 20145 39544 40074 57012 72386 333 69905 82/56 86/70 90710 91111= 02038 Latnivaara|Ladnivare 18,5 01:00 2022-07-03 SE-BD AAXX 02231 02038 27/71 /1403 10185 20169 70086 333 60005 90710 91106= 02044 Kiruna|Tuolluvaara/Airpor 19,5 01:00 2022-07-03 SE-BD KRN ESNQ AAXX 02231 02044 45/80 /1804 10195 20175 39561 40085 56010= 02045 Kiruna|Tuolluvaara/Geofys /// (06:00 2022-07-02) SE-BD AAXX 0204/ 02045 NIL=
02049 Gallivare|Malmberget/Priv 18,8 01:00 2022-07-03 SE-BD GEV ESNG AAXX 02231 02049 27/64 /1502 10188 20173 39681 40094 57009 70086 333 60005 90710 91105= 99236 Nedre Soppero /// (07:00 2022-07-02) SE-BD OOXX 02054 99236 10882 10038 ////2 26/// ///// 11322 2//// 3//// 4//// 5//// 6//// 7//// 8//// 9//// 333 55/// ///// 58/// 02055 Naimakka|Siikavuopio 18,5 01:00 2022-07-03 SE-LL AAXX 02231 02055 27775 30804 10185 20167 700// 333 60005 81/56 83/60 90710 91106= 02063 Asele|Söråsele 18,9 (08:00 2022-06-02) SE-AC AAXX 02064 02063 64870 32460 10189 20178 38887 48485 82542 333 0//00 20183 50331 55068 59030 82616 85360 87080= 02064 Saittarova 20,0 01:00 2022-07-03 SE-BD AAXX 02231 02064 27/80 /1604 10200 20163 700// 333 60005 90710 91106=
02072 Porkalompolo|Parkalompolo 18,8 01:00 2022-07-03 SE-BD AAXX 02231 02072 27966 31702 10188 20162 39744 40105 57007 7001/ 333 60005 83/60 90710 91104= 99000 Orebro|Ekeby-Almby/Ekeby /// (09:00 2022-07-02) SE-T OOXX 02074 99000 10000 03600 ////2 26/// ///// 11382 2//// 3//// 4//// 5//// 6//// 7//// 8//// 9//// 333 55/// ///// 58/// 02081 Karesuando/Airport 19,7 01:00 2022-07-03 SE-BD AAXX 02231 02081 27/80 /1302 10197 20168 39714 40095 57011 7//86 333 60005 90710 91105= 99000 Lannavaara /// (10:00 2022-07-02) SE-BD OOXX 02084 99000 10000 03600 ////2 26/// ///// 11384 2//// 3//// 4//// 5//// 6//// 7//// 8//// 9//// 333 55/// ///// 58/// 99236 Ungskar|Stenshamn /// (11:00 2022-07-02) SE- OOXX 02094 99236 10882 10038 ////2 26/// ///// 11325 2//// 3//// 4//// 5//// 6//// 7//// 8//// 9//// 333 55/// ///// 58///
02095 Pajala|Kungsstrand 20,7 01:00 2022-07-03 SE-BD AAXX 02231 02095 27971 61804 10207 20176 39921 40113 55004 700// 333 60005 85/59 86/61 90710 91107= 02101 Palkem|Björkfors 10,8 01:00 2022-07-03 SE-AC AAXX 02231 02101 47484 ///// 10108 20103 39576 40115 51041 723// 333 85/15 88/23= 02102 Stekenjokk|Stikkenjokk 6,0 01:00 2022-07-03 SE-AC AAXX 02231 02102 46/// ///// 10060 20059= 02103 Hemavan-Skorvfjalle|Portb 8,2 01:00 2022-07-03 SE-AC AAXX 02231 02103 46/// /2907 10082 20080 333 90710 91113= 99000 Hemavan|Portbron /// (12:00 2022-07-02) SE-AC OOXX 02104 99000 10000 03600 ////2 26/// ///// 11383 2//// 3//// 4//// 5//// 6//// 7//// 8//// 9//// 333 55/// ///// 58///
02110 Gielas|Svallgonäs 10,3 01:00 2022-07-03 SE-AC AAXX 02231 02110 27/84 /2901 10103 20092 70082 333 60005 90710 91104= 99000 Norraker|Saxåmon /// (13:00 2022-07-02) SE-AC OOXX 02114 99000 10000 03600 ////2 26/// ///// 11387 2//// 3//// 4//// 5//// 6//// 7//// 8//// 9//// 333 55/// ///// 58/// 02119 Kvikkjokk Arrenjarka A|Nj 19,4 01:00 2022-07-03 SE-BD AAXX 02231 02119 27984 71001 10194 20129 39710 40073 57008 700// 333 60005 87/63 90710 91103= 02121 Mierkenis|Vuoggatjålme 16,9 01:00 2022-07-03 SE-BD AAXX 02231 02121 27/76 /1303 10169 20153 39364 40063 56005 70086 333 60005 90710 91106= 02124 Arjeplog|Sakkavare 18,6 01:00 2022-07-03 SE-BD AAXX 02231 02124 27580 81504 10186 20155 39582 40076 55007 700// 333 60005 83/20 88/56 90710 91109=
02126 Gunnarn|Bastuträsk/Airpor 16,1 01:00 2022-07-03 SE-AC ESPD AAXX 02231 02126 27384 72204 10161 20142 39771 40094 53006 72362 333 60015 81/08 83/50 87/59 90710 91107= 02135 Buresjoen 17,0 01:00 2022-07-03 SE-AC AAXX 02231 02135 27462 81602 10170 20161 7616/ 333 60025 82/11 83/50 88/60 90710 91108= 02141 Tjakaape|Nausta 17,1 01:00 2022-07-03 SE-BD AAXX 02231 02141 05983 11704 10171 20165 39425 40087 56009 60005 333 60005 81/69 91006 90710 91106= 99236 Abraur|Suddesjaur /// (16:00 2022-07-02) SE-BD OOXX 02144 99236 10882 10038 ////2 26/// ///// 11360 2//// 3//// 4//// 5//// 6//// 7//// 8//// 9//// 333 55/// ///// 58/// 02147 Malaa-Braennan|Släppträsk 18,0 01:00 2022-07-03 SE-AC AAXX 02231 02147 27/83 /1604 10180 20148 7818/ 333 69905 90710 91108=
02149 Arvidsjaur|Fjällbonäs 17,9 01:00 2022-07-03 SE-BD AAXX 02231 02149 27482 81303 10179 20159 39648 40089 57006 700// 333 60005 83/18 88/58 88/67 90710 91107= 02151 Jokkmokk|Koskats/Jokkmokk 19,6 01:00 2022-07-03 SE-BD AAXX 02231 02151 27982 71404 10196 20172 39774 40092 56007 7//86 333 60005 84/63 87/71 91006 90710 91106 555 60005= 02154 Vidsel|Nästräsk/AFB 19,6 01:00 2022-07-03 SE-BD ESPE AAXX 02231 02154 07683 11505 10196 20174 39887 40098 56002 60005 70086 333 60005 81/37 91007 90710 91107= 02161 Nattavaara 18,8 01:00 2022-07-03 SE-BD AAXX 02231 02161 27980 31502 10188 20147 700// 333 60005 83/71 90710 91106= 99236 Palkem|Pålkem /// (18:00 2022-07-02) SE-BD OOXX 02164 99236 10882 10038 ////2 26/// ///// 11367 2//// 3//// 4//// 5//// 6//// 7//// 8//// 9//// 333 55/// ///// 58///
02171 Boden|Avaheden/Army Air B 19,9 01:00 2022-07-03 SE-BD ESPG AAXX 02231 02171 05482 81402 10199 20180 30083 40112 50000 60005 333 60005 84/14 88/62 91004 90710 91106= 02173 Aelvsbyn|Högheden 19,8 01:00 2022-07-03 SE-BD AAXX 02231 02173 27477 61302 10198 20175 70086 333 60005 86/13 90710 91105= 02174 Lakatraesk|Lakaträsk 19,9 01:00 2022-07-03 SE-BD AAXX 02231 02174 27980 81303 10199 20154 39887 40103 55002 700// 333 60005 88/62 90710 91108= 02176 Ronnskar|Jävrebodarna/Aut 19,8 01:00 2022-07-03 SE- AAXX 02231 02176 27470 61808 10198 20172 70086 333 60005 81/15 86/33 90710 91111= 02181 Svartbyn|Mjölan/Automated 18,7 01:00 2022-07-03 SE-BD AAXX 02231 02181 27/58 /1401 10187 20182 30048 40120 50001 76186 333 60025 90710 91107=
02183 Lulea Sol|Kallax /// 00:00 2022-07-03 SE-BD AAXX 0222/ 02183 333 55300 20016= 02184 Paharova 19,8 01:00 2022-07-03 SE-BD AAXX 02231 02184 27/82 /1703 10198 20161 39846 40110 55003 700// 333 60005 90710 91112= 02186 Kallax|Svartöstaden/Lulea 19,6 01:00 2022-07-03 SE-BD LLA ESPA AAXX 02231 02186 25380 81606 10196 20181 30096 40119 50000 333 60005 81/09 83/14 88/26 91008 90710 91109 555 60005= 02188 Rodkallen|Storbrändön/Aut 18,5 01:00 2022-07-03 SE- AAXX 02231 02188 27466 71506 10185 20177 700// 333 60005 86/12 87/18 90710 91108= 02191 Storoen|Storön 19,6 01:00 2022-07-03 SE- AAXX 02231 02191 27980 51505 10196 20191 72386 333 69905 84/61 85/66 90710 91107=
02197 Haparanda|Sundholmen/Hapa 18,6 01:00 2022-07-03 SE-BD AAXX 02231 02197 27908 81801 10186 20183 30111 40129 58005 73486 333 69965 88/60 90710 91105= 02199 Ylinenjaervi|Ylinenjärvi 20,6 01:00 2022-07-03 SE-BD AAXX 02231 02199 27983 51703 10206 20167 700// 333 60005 82/63 83/67 85/72 90710 91109= 99000 Nikkaluokta /// 22:00 2022-07-02 SE-BD OOXX 02204 99000 10000 03600 ////2 26/// ///// 11391 2//// 3//// 4//// 5//// 6//// 7//// 8//// 9//// 333 55/// ///// 58/// 02205 Storlien Sol /// (10:00 2022-01-17) SE-Z AAXX 1709/ 02205 NIL= 02207 Storlien-Visjovalen|Visjö 5,6 01:00 2022-07-03 SE-Z AAXX 02231 02207 27883 20801 10056 20049 39455 40154 50000 7//82 333 60005 82/57 90710 91103=
02209 Sylarna|Tjallingen/Automa 7,2 01:00 2022-07-03 SE-Z AAXX 02231 02209 46/// ///// 10072 20041= 02210 Blahammaren A|Blåhammaren 6,0 01:00 2022-07-03 SE-Z AAXX 02231 02210 46/// /1704 10060 20054 333 90710 91108= 99000 Trillevallen|Sefrivatn /// 23:00 2022-07-02 SE-18 OOXX 02214 99000 10000 03600 ////2 26/// ///// 11392 2//// 3//// 4//// 5//// 6//// 7//// 8//// 9//// 333 55/// ///// 58/// 02219 Gaddede A|Gussvattnet 9,2 01:00 2022-07-03 SE-Z AAXX 02231 02219 27/80 /3002 10092 20089 39481 40136 53012 72386 333 69905 90710 91105= 02221 Korsvattnet|Mjölkvattnet 7,0 01:00 2022-07-03 SE-Z AAXX 02231 02221 27/84 /1001 10070 20063 7001/ 333 60005 90710 91104=
99000 Follinge-Vagskalet|Vägskä /// 00:00 2022-07-03 SE-Z OOXX 02224 99000 10000 03600 ////2 26/// ///// 11391 2//// 3//// 4//// 5//// 6//// 7//// 8//// 9//// 333 55/// ///// 58/// 02226 Ostersund-Åre Airport 11,7 01:00 2022-07-03 SE-Z OSD ESNZ AAXX 02231 02226 45/84 /2401 10117 20090 39701 40145 50009= 02229 Östersund Sol|Västerhus /// 00:00 2022-07-03 SE-Z AAXX 0222/ 02229 333 55300 20010= 02230 Gubbhögen/Högbynäs 12,1 01:00 2022-07-03 SE-Z AAXX 02231 02230 27/84 /2703 10121 20086 70086 333 60005 90710 91107= 02231 Föllinge 9,2 01:00 2022-07-03 SE-Z AAXX 02231 02231 27/84 /2701 10092 20083 700// 333 60005 90710 91103=
99000 Stromsund/Näsviken /// 01:00 2022-07-03 SE-Z OOXX 02234 99000 10000 03600 ////2 26/// ///// 11391 2//// 3//// 4//// 5//// 6//// 7//// 8//// 9//// 333 55/// ///// 58/// 02236 Hallhåxåsen 9,5 01:00 2022-07-03 SE-Z AAXX 02231 02236 27584 42201 10095 20090 39695 40144 53015 70082 333 60005 84/23 83/23 90710 91103= 02242 Hoting|Andersnäset 12,0 01:00 2022-07-03 SE-Z AAXX 02231 02242 27/84 /2701 10120 20074 700// 333 60005 90710 91106= 02243 Krångede|Bölen 11,8 01:00 2022-07-03 SE-Y AAXX 02231 02243 27/84 /2602 10118 20078 39875 40138 51026 7//82 333 60005 90710 91105= 02245 Vilhelmina|Dalasjö/Automa 11,5 01:00 2022-07-03 SE-AC AAXX 02231 02245 27/84 /2401 10115 20102 39706 40120 53032 70082 333 60005 90710 91104=
02247 Krangede|Döviken/Automate 10,6 01:00 2022-07-03 SE-Z AAXX 02231 02247 27/61 /3301 10106 20077 39925 40146 51016 700// 333 60005 90710 91103= 02254 Åsele/Söråsele 10,5 01:00 2022-07-03 SE-AC AAXX 02231 02254 27/78 /2301 10105 20090 39761 40128 51029 70086 333 60005 90710 91106= 02260 Västmarkum|Östmarkum 13,3 01:00 2022-07-03 SE-Y AAXX 02231 02260 27/84 /2602 10133 20112 39963 40133 52021 70086 333 60005 90710 91104= 02261 Lycksele|Hälsingfors 17,4 01:00 2022-07-03 SE-AC AAXX 02231 02261 27/68 /1502 10174 20166 39853 40099 53004 78182 333 69985 90710 91106= 02263 Fredrika|Fristad 13,9 01:00 2022-07-03 SE-AC AAXX 02231 02263 27484 72502 10139 20125 70086 333 60005 87/15 90710 91107=
02265 Hemling 14,7 01:00 2022-07-03 SE-Y AAXX 02231 02265 27/84 /3002 10147 20130 39909 40126 53017 70086 333 60005 90710 91106= 02267 Örnskoldsvik/Airport 17,2 01:00 2022-07-03 SE-Y OER ESNO AAXX 02231 02267 45784 /2505 10172 20144 39994 40121 53010 333 83/56= 02269 Skagsudde|Skeppsmalen/Aut 19,7 01:00 2022-07-03 SE-Y AAXX 02231 02269 27784 52508 10197 20130 70086 333 60005 85/56 90710 91111= 02271 Norsjö|Finnäs 17,9 01:00 2022-07-03 SE-AC AAXX 02231 02271 27/81 /1804 10179 20152 39738 40096 56005 700// 333 60005 90710 91108= 02282 Petisträsk 17,7 01:00 2022-07-03 SE-AC AAXX 02231 02282 27484 81702 10177 20155 7238/ 333 69925 85/12 88/16 90710 91107=
02283 Umeå Robacksdalen|Teg /// 00:00 2022-07-03 SE-AC AAXX 0222/ 02283 333 55300 20005 41368= 02284 Järnäsklubb 19,2 01:00 2022-07-03 SE-AC AAXX 02231 02284 27682 42209 10192 20169 30110 40119 53001 70082 333 60005 84/46 90710 91112= 02286 Umeå/Airport 18,1 01:00 2022-07-03 SE-AC UME ESNU AAXX 02231 02286 47584 /1903 10181 20161 30110 40119 58004 723// 333 84/30 85/38= 02287 Holmön 18,3 01:00 2022-07-03 SE- AAXX 02231 02287 25980 82106 10183 20156 30113 40122 57005 333 60005 88/66 90710 91111= 02293 Skellefteå/Airport 18,9 01:00 2022-07-03 SE-AC SFT ESNS AAXX 02231 02293 45984 /1805 10189 20163 30057 40113 57005 333 88/64=
02297 Bjuröklubb 17,4 01:00 2022-07-03 SE- AAXX 02231 02297 27984 81907 10174 20154 30073 40116 58006 70086 333 60005 88/63 90710 91112= 02307 Idre|Idre Fjäll/Automated 10,8 01:00 2022-07-03 SE-W AAXX 02231 02307 46/// /2006 10108 20083 333 90710 91108= 02308 Tannas|Tännäs/Automated 7,4 01:00 2022-07-03 SE-Z AAXX 02231 02308 27/84 /0901 10074 20049 39305 40159 50002 70086 333 60005 90710 91103= 02316 Särna 18,7 20:00 2022-07-02 SE-W AAXX 02181 02316 46/// ///// 10187 333 10200 20166= 02317 Dravagen 7,6 01:00 2022-07-03 SE-Z AAXX 02231 02317 27484 52901 10076 20072 70082 333 60005 84/18 85/57 90710 91102=
02319 Börtnan 7,8 01:00 2022-07-03 SE-Z AAXX 02231 02319 27/84 /0000 10078 20053 700// 333 60005 90710 91102= 02321 Älvdalen|Rot 11,6 01:00 2022-07-03 SE-W AAXX 02231 02321 27/84 /0801 10116 20094 39859 40161 51015 700// 333 60005 90710 91103= 02325 Klövsjöhöjden|Sångbäcken 8,1 01:00 2022-07-03 SE-Z AAXX 02231 02325 27/84 /2102 10081 20067 39222 40161 52006 700// 333 60005 90710 91103= 02327 Sveg|Sundsätt/Sveg A 10,6 01:00 2022-07-03 SE-Z AAXX 02231 02327 27/84 /0702 10106 20087 39728 40156 50010 72386 333 69905 90710 91102= 02329 Hamra 12,1 01:00 2022-07-03 SE-X AAXX 02231 02329 27/84 /2302 10121 20103 39623 40158 51014 700// 333 60005 90710 91105=
02331 Hunge 7,5 01:00 2022-07-03 SE-Z AAXX 02231 02331 27/81 /0201 10075 20072 700// 333 60005 90710 91102= 02338 Edsbyn|Gammelhomna/Automa 14,3 01:00 2022-07-03 SE-X AAXX 02231 02338 27/84 /0000 10143 20106 39940 40160 52017 700// 333 60005 90710 91107= 02343 Torpshammar|Rombäck 10,2 01:00 2022-07-03 SE-Y AAXX 02231 02343 27/84 /0000 10102 20074 30030 40152 51024 700// 333 60005 90710 91101= 02347 Delsbo|Åkre 16,0 01:00 2022-07-03 SE-X AAXX 02231 02347 27/84 /2201 10160 20097 30065 40151 53017 700// 333 60005 90710 91105= 02355 Kuggören|Bålsön/Automated 17,8 01:00 2022-07-03 SE- AAXX 02231 02355 25/84 /2303 10178 20117 30138 40150 52013 333 60005 90710 91107=
02366 Sundsvall|Midlanda/Härnös 14,6 01:00 2022-07-03 SE-Y SDL ESNN AAXX 02231 02366 45/84 /2602 10146 20114 30139 40145 52023= 02368 Brämön/Sanna/Automated 17,2 01:00 2022-07-03 SE- AAXX 02231 02368 27/84 /2503 10172 20121 700// 333 60005 90710 91106= 02382 Lungö|Uddhamn/Automated 17,3 01:00 2022-07-03 SE- AAXX 02231 02382 27/84 /2803 10173 20123 700// 333 60005 90710 91108= 02403 Naven|Skaven 15,9 01:00 2022-07-03 SE- AAXX 02231 02403 27/81 /1904 10159 20122 700// 333 60005 90710 91108= 02407 Malung A|Grimsmyrheden 12,8 01:00 2022-07-03 SE-W AAXX 02231 02407 25/84 /2003 10128 20076 39807 40167 51009 333 60005 90710 91105=
02408 Blomskog|Vammerviken/Auto 14,7 01:00 2022-07-03 SE- AAXX 02231 02408 27684 82401 10147 20110 39972 40175 50000 72382 333 60005 87/40 88/50 90710 91104= 02411 Arvika|Långvak 11,3 01:00 2022-07-03 SE-S AAXX 02231 02411 27771 80000 10113 20108 30094 40175 50005 700// 333 60005 88/50 88/58 90710 91101= 02417 Pålgrunden|Tallbacken /// 01:00 2022-07-03 SE-S AAXX 02231 02417 46/// /1608 333 90710 91110= 02418 Karlstad/Airport 13,5 01:00 2022-07-03 SE-S KSD ESSQ AAXX 02231 02418 45684 /1802 10135 20088 30052 40180 50005 333 87/43= 02419 Sookojan|Nolgård /// 23:00 2022-07-02 SE-S AAXX 0221/ 02419 333 55300 20014=
02423 Sunne|Ulvsby 9,4 01:00 2022-07-03 SE-S AAXX 02231 02423 27880 53601 10094 20085 700// 333 60005 84/57 85/59 90710 91101= 02426 Gustavsfors 9,1 01:00 2022-07-03 SE-S AAXX 02231 02426 27/71 /0000 10091 20083 39952 40180 52009 700// 333 60005 90710 91103= 02429 Daglösen|Gränäset 9,6 01:00 2022-07-03 SE-US AAXX 02231 02429 27/13 /2001 10096 20094 7101/ 333 60005 90710 91101= 02431 Kloten 12,3 01:00 2022-07-03 SE-T AAXX 02231 02431 27/82 /2302 10123 20107 39846 40184 52007 700// 333 60005 90710 91107= 02432 Orebro|Tredingskullen/Aut 13,3 01:00 2022-07-03 SE-T AAXX 02231 02432 45/83 /1902 10133 20104 30122 40191 52005=
02435 Borlänge|Romme/AFB 13,8 01:00 2022-07-03 SE-W BLE ESSD AAXX 02231 02435 45/84 /1801 10138 20099 39989 40172 52010= 02437 Aspa /// 00:00 2022-07-03 SE-U ESQO AAXX 0222/ 02437 333 55300 20001= 02440 Åmot 10,5 01:00 2022-07-03 SE-X AAXX 02231 02440 25/70 /3501 10105 20093 333 60005 90710 91103= 02441 Mora|Vinäs 14,4 01:00 2022-07-03 SE-W AAXX 02231 02441 27/84 /2701 10144 20100 39927 40161 52011 700// 333 60005 90710 91107= 02443 Enköping/Åkerby 14,7 01:00 2022-07-03 SE-C AAXX 02231 02443 05983 02101 10147 20109 30159 40188 51010 60005 333 60005 91002 90710 91103=
02449 Eskilstuna|Flacksta/AB 14,3 01:00 2022-07-03 SE-D EKT ESSU AAXX 02231 02449 27/78 /2002 10143 20093 30175 40190 52007 700// 333 60005 90710 91103= 02450 Eggegrund|Långsand 15,5 01:00 2022-07-03 SE- AAXX 02231 02450 46/// /2205 10155 20124 333 90710 91107= 02452 Kilsbergen-Suttarboda|Sve 13,8 01:00 2022-07-03 SE-T AAXX 02231 02452 27/83 /2302 10138 20104 700// 333 60005 90710 91106= 02453 Gävle|Varva/Automated 14,8 01:00 2022-07-03 SE-X AAXX 02231 02453 27/83 /2002 10148 20116 700// 333 60005 90710 91105= 02456 Films Kyrkby|Kyrkbyn 14,1 01:00 2022-07-03 SE-C AAXX 02231 02456 25/84 /2202 10141 20105 30137 40179 52012 333 60005 90710 91104=
02458 Uppsala|Ärna/AFB 13,7 01:00 2022-07-03 SE-C ESCM AAXX 02231 02458 05989 02203 10137 20101 30160 40184 51010 60005 333 60005 91005 90710 91105= 02460 Stockholm|Kimsta/Arlanda 14,9 01:00 2022-07-03 SE-AB ARN ESSA AAXX 02231 02460 45/84 /2101 10149 20094 30136 40186 51011= 02462 Uppsala Universitet|Almtu 6,1 (15:00 2019-11-20) SE-C AAXX 20141 02462 26/// /1701 10061 20060 30240 40279 333 60005= 02464 Stockholm/Bromma 13,3 01:00 2022-07-03 SE-AB BMA ESSB AAXX 02231 02464 45/84 /2001 10133 20109 30175 40193 51012= 02468 Stora Spånsberget|Spånsfä 11,6 01:00 2022-07-03 SE-W AAXX 02231 02468 27/83 /1502 10116 20071 700// 333 60005 90710 91106=
02469 Tullinge|Eklundshov 10,5 01:00 2022-07-03 SE-AB AAXX 02231 02469 27/37 /0000 10105 20104 72032 333 60005 90710 91101= 02476 Floda|Stav/Automated 11,7 01:00 2022-07-03 SE-D AAXX 02231 02476 27/82 /0000 10117 20088 30155 40195 52006 700// 333 60005 90710 91101= 02481 Sala|Isätra 12,5 01:00 2022-07-03 SE-U AAXX 02231 02481 27/84 /2201 10125 20101 30115 40186 52011 700// 333 60005 90710 91103= 02482 Kerstinbo|Sälja 13,9 01:00 2022-07-03 SE-X AAXX 02231 02482 27/84 /2602 10139 20107 30108 40177 52011 700// 333 60005 90710 91105= 02483 Stockholm Kth|Stocksund/A /// 23:00 2022-07-02 SE-AB AAXX 0221/ 02483 333 55300 20008=
02484 Stockholm|Stocksund/Obser 16,8 01:00 2022-07-03 SE-AB AAXX 02231 02484 46/// ///// 10168 20104 30140 40193 52012= 02485 Stockholm|Stocksund/Autom 0,3 (07:00 2019-10-30) SE-AB AAXX 30061 02485 12/70 82701 10003 21030 30205 40271 60002 333 10037 20007= 02486 Adelsö/Hovgården 16,1 01:00 2022-07-03 SE- AAXX 02231 02486 27/84 /2402 10161 20107 700// 333 60005 90710 91105= 02487 Stavsnäs|Eriksberg/Automa 15,9 01:00 2022-07-03 SE- AAXX 02231 02487 46/// /2502 10159 20114 333 90710 91103= 02488 Örskar|Askskär/Automated 16,6 01:00 2022-07-03 SE- AAXX 02231 02488 27/84 /2308 10166 20119 30164 40175 52011 700// 333 60005 90710 91109=
02489 Hårsfjarden|Berga 13,7 01:00 2022-07-03 SE- AAXX 02231 02489 07963 02901 10137 20126 30192 40197 51013 60005 731// 333 60005 91002 90710 91102= 02490 Svanberga 11,6 01:00 2022-07-03 SE-AB AAXX 02231 02490 27/82 /0000 10116 20103 30166 40186 52013 700// 333 60005 90710 91103= 02493 Söderarm|Österäng 18,1 01:00 2022-07-03 SE- AAXX 02231 02493 47/84 /2707 10181 20126 700// 333 90710 91110= 02496 Svenska Högarna|Kudoxa/Li 9,8 (08:00 2021-06-01) SE- AAXX 01060 02496 02984 00507 10098 333 10100 20081 31/// 70000= 02498 Svenska Högarna A|Kudoxa 16,8 (11:00 2022-06-17) SE- AAXX 17091 02498 25/84 /3204 10168 20123 30154 40171 52010 333 60005 90710 91106=
02500 Nordkoster|Nord-Koster 16,7 01:00 2022-07-03 SE- AAXX 02231 02500 27/68 /2107 10167 20132 30131 40172 54001 7//82 333 60005 90710 91110= 02501 Vaderöarna|Sjöviken 16,8 01:00 2022-07-03 SE- AAXX 02231 02501 46/// /2005 10168 20138 30148 40176 50001 333 90710 91108= 02505 Måseskar|Käringön 17,3 01:00 2022-07-03 SE- AAXX 02231 02505 27665 11804 10173 20143 700// 333 60005 81/37 90710 91105= 02513 Göteborg|Torp/Automated 18,3 01:00 2022-07-03 SE- AAXX 02231 02513 25/82 /2202 10183 20102 30187 40191 51005 333 60005 90710 91106= 02516 Vinga|Fotö/Lighthouse 18,3 01:00 2022-07-03 SE- AAXX 02231 02516 27/70 /2109 10183 20129 30168 40190 50006 700// 333 60005 90710 91111=
02518 Nidingen|Vässingsö/Lighth 18,6 01:00 2022-07-03 SE- AAXX 02231 02518 46/// /2209 10186 20117 333 90710 91111= 02520 Såtenas|Såtenäs Villastad 14,0 01:00 2022-07-03 SE- AAXX 02231 02520 25989 01804 10140 20122 30118 40184 58003 333 60005 91005 90710 91106 555 60005= 02526 Göteborg/Landvetter 13,1 01:00 2022-07-03 SE- GOT ESGG AAXX 02231 02526 45/84 /1903 10131 20102 30012 40197 50003= 02536 Rångedala|Vevelhult/Autom 12,8 01:00 2022-07-03 SE- AAXX 02231 02536 27980 21702 10128 20110 39844 40199 50001 700// 333 60005 82/73 90710 91104= 02539 Ullared|Spetsebo 10,4 01:00 2022-07-03 SE-N AAXX 02231 02539 27/15 /0000 10104 20101 72032 333 60005 90710 91100=
02540 Kroppefjäll-Grånan|Årbol 12,3 01:00 2022-07-03 SE- AAXX 02231 02540 27556 32701 10123 20116 72386 333 69965 83/32 90710 91103= 02542 Hallum|Hällum 13,9 01:00 2022-07-03 SE- AAXX 02231 02542 27/80 /1904 10139 20117 30102 40187 57002 700// 333 60005 90710 91105= 02544 Karlsborg|Gräshult 13,0 01:00 2022-07-03 SE- AAXX 02231 02544 07984 02102 10130 20116 30083 40196 50000 60005 7008/ 333 60005 91003 90710 91104= 02545 Axstal|Hanken 16,8 01:00 2022-07-03 SE- AAXX 02231 02545 05983 0//// 10168 20154 30090 40195 50000 60005 333 60005= 02546 Gardsjö|Korterud 14,2 01:00 2022-07-03 SE-T AAXX 02231 02546 27/83 /1801 10142 20112 39939 40191 50000 700// 333 60005 90710 91103=
02548 Visingsö|Ed 15,8 01:00 2022-07-03 SE-F AAXX 02231 02548 27/83 /2004 10158 20116 700// 333 60005 90710 91107= 02549 Tomtabacken|Stora Åkerhul 13,0 01:00 2022-07-03 SE-F AAXX 02231 02549 27983 11901 10130 20088 700// 333 60005 81/73 90710 91103= 02550 Jönkoping/Airport 12,5 01:00 2022-07-03 SE-F JKG ESGJ AAXX 02231 02550 45/84 /1903 10125 20114 39934 40204 50000= 02552 Malexander|Mo 15,3 01:00 2022-07-03 SE-E AAXX 02231 02552 27783 12101 10153 20095 700// 333 60005 81/56 90710 91105= 02554 Kettstaka|Hulta 14,2 01:00 2022-07-03 SE-E AAXX 02231 02554 27/83 /1802 10142 20100 700// 333 60005 90710 91104=
02556 Hagshult|Hemmershult/AFB /// 20:00 2022-07-02 SE-F ESMV AAXX 02181 02556 16/// ///// 60002= 02557 Horn|Äleby 8,8 01:00 2022-07-03 SE-E AAXX 02231 02557 27/62 /1501 10088 20057 30097 40208 50006 700// 333 60005 90710 91102= 02558 Kolmarden-Strömsfors|Strö 15,1 01:00 2022-07-03 SE-E AAXX 02231 02558 27/84 /2301 10151 20116 30015 40199 52006 700// 333 60005 90710 91104= 02559 Gladhammar|Ringsbo 12,2 01:00 2022-07-03 SE-H AAXX 02231 02559 27/84 /2501 10122 20101 700// 333 60005 90710 91102= 02561 Kvarn|Prästtomta 11,5 01:00 2022-07-03 SE-E AAXX 02231 02561 05981 00000 10115 20103 30113 40200 51004 60005 333 60005 91001 90710 91101=
02562 Linköping|Jägarvallen/Mal 13,7 01:00 2022-07-03 SE-E AAXX 02231 02562 25983 01802 10137 20108 30090 40203 51003 333 60005 91003 90710 91103 555 60005= 02563 Harstena|Missjö 18,1 01:00 2022-07-03 SE- AAXX 02231 02563 25/84 /2503 10181 20112 30180 40201 52009 333 60005 90710 91104= 02565 Hultsfred|Målilla/AFB 10,6 01:00 2022-07-03 SE-H HLF ESSF AAXX 02231 02565 25/77 /0000 10106 20097 30094 40212 50003 333 60005 90710 91101= 02567 Landsort 19,2 01:00 2022-07-03 SE- AAXX 02231 02567 27/84 /2705 10192 20144 30175 40198 52011 700// 333 60005 90710 91107= 02570 Norrköping|Östra Eneby/Br /// (19:00 2020-02-28) SE-E AAXX 28181 02570 10804 10368 20196 30032 40097 60001 81100 333 56100 59005 60007 81827=
02574 Norrköping|Fiskeby 16,1 01:00 2022-07-03 SE-E AAXX 02231 02574 27/84 /2202 10161 20106 30149 40198 52007 700// 333 60005 90710 91103= 02575 Ölandsnorraudde|Nabbelund 17,6 01:00 2022-07-03 SE- AAXX 02231 02575 27/82 /2502 10176 20126 30204 40209 50006 700// 333 60005 90710 91105= 02587 Fårösund-Ar 16,9 01:00 2022-07-03 SE- AAXX 02231 02587 27/84 /2203 10169 20144 700// 333 60005 90710 91105= 02589 Gotska Sandön|Lauters 17,0 01:00 2022-07-03 SE- AAXX 02231 02589 27/83 /2703 10170 20136 30181 40201 52008 700// 333 60005 90710 91106= 02590 Visby/Airport 14,6 01:00 2022-07-03 SE-I VBY ESSV AAXX 02231 02590 45/83 /2002 10146 20131 30149 40209 50008=
02598 Östergarnsholm|Katthammar 16,1 01:00 2022-07-03 SE- AAXX 02231 02598 46/// /2504 10161 20141 333 90710 91105= 02604 Halmstad|Karlsro/AFB 20,2 20:00 2022-07-02 SE-N HAD ESMT AAXX 02181 02604 45/83 /2403 10202 20129 30169 40205 57006 333 10216 20168= 02605 Hallands|Kalvskärslid/Vad 18,1 01:00 2022-07-03 SE- AAXX 02231 02605 27/82 /1904 10181 20126 700// 333 60005 90710 91107= 02607 Ängelholm|Barkåkra/AFB|F- 12,7 01:00 2022-07-03 SE- ESDB AAXX 02231 02607 45983 /0901 10127 20104 30191 40213 50000 333 84/70 85/71= 02611 Helsingborg|Västra Ramlös 14,3 01:00 2022-07-03 SE- AAXX 02231 02611 27/82 /1301 10143 20123 30159 40212 57002 700// 333 60005 90710 91102=
02615 Falsterbo|Falsterbovång/F 17,3 01:00 2022-07-03 SE- AAXX 02231 02615 25984 21505 10173 20139 30209 40213 58003 333 60005 82/71 90710 91108= 02616 Falsterbo|Falsterbovång/L 13,9 (08:00 2021-06-01) SE- AAXX 01060 02616 01/57 73504 10139 20126 30191 40197 53003 71022 85032 333 10171 20129 30/// 70000 85364 87258= 02618 Torup|Torpup|Tranabo/Torp 12,6 01:00 2022-07-03 SE-N AAXX 02231 02618 27/70 /1901 10126 20110 30048 40210 50001 76366 333 69905 90710 91103= 02622 Ljungby|Hovdinge 10,5 01:00 2022-07-03 SE-G AAXX 02231 02622 27/63 /0000 10105 20100 7001/ 333 60005 90710 91102= 02623 Hörby|Slagtofta 14,4 01:00 2022-07-03 SE- AAXX 02231 02623 27980 21402 10144 20121 700// 333 60005 82/70 90710 91103=
02625 Skillinge|Gislövhammar/Au 13,7 01:00 2022-07-03 SE- AAXX 02231 02625 27/61 /0000 10137 20128 30217 40224 57001 700// 333 60005 90710 91102= 02628 Hano|Hanö/Automated 16,1 01:00 2022-07-03 SE- AAXX 02231 02628 26/// /2404 10161 20157 333 60005 90710 91106= 02629 Hästveda|Hästveda /// 20:00 2022-07-02 SE- AAXX 02181 02629 16/// ///// 60002= 02632 Utklippan|Stenshamn 16,7 01:00 2022-07-03 SE- AAXX 02231 02632 46/// /2304 10167 20153 333 90710 91106= 02635 Malmö|Husie/Automated 15,3 01:00 2022-07-03 SE- AAXX 02231 02635 25/80 /1402 10153 20131 333 60005 90710 91103=
02636 Malmö|Beddinge Läge/Sturu 12,7 01:00 2022-07-03 SE- MMX ESMS AAXX 02231 02636 45961 /1102 10127 20123 30134 40220 50001 333 81/71= 02644 Ölandssödraudde|Ottenby/A 17,2 01:00 2022-07-03 SE- AAXX 02231 02644 27/81 /2505 10172 20154 30216 40220 52001 700// 333 60005 90710 91107= 02648 Växjö|Telestad 12,9 01:00 2022-07-03 SE-G AAXX 02231 02648 27/83 /2101 10129 20107 39977 40217 50003 700// 333 60005 90710 91103= 02661 Kosta|Lövsjö 11,8 01:00 2022-07-03 SE-G AAXX 02231 02661 05981 00000 10118 20107 39947 40223 50003 60005 333 60005 91001 90710 91102= 02664 Ronneby|Häggatorp/AFB 13,2 01:00 2022-07-03 SE-K RNB ESDF AAXX 02231 02664 25983 00000 10132 20132 30153 40224 50002 333 60005 91000 90710 91102 555 60005=
02667 Söderstjerna|Drottningskä 17,5 01:00 2022-07-03 SE- AAXX 02231 02667 05982 02503 10175 20163 30220 40223 51002 60005 333 60005 91005 90710 91106= 02670 Kalmar|Elverslösa/Airport /// 01:00 2022-07-03 SE-H ESDC AAXX 02231 02670 45/89 /2403 30211 50004= 02679 Hoburg|Burge/Hoburg A 17,7 01:00 2022-07-03 SE-I AAXX 02231 02679 25/83 /2704 10177 20152 30172 40215 51006 333 60005 90710 91106= (203 rader visades) Du kan lägga till id-beteckningen först på raden i valfri Lista 1 - 5 [top] ↕°C [1] [2] [3] [4] [5] ??? LISTOR 00-nr NOT MEDD MT METAR SYNOP SE SE-AB SE-C SE-D SE-E SE-F SE-G SE-H SE-I SE-K SE-M SE-N SE-O SE-P SE-T SE-U SE-W SE-X SE-Y SE-Z SE-AC SE-BD rådata flyg flyg_osd